sensor_id;sensor_type;location;lat;lon;timestamp;pressure;altitude;pressure_sealevel;temperature;humidity
42671;BME280;28283;55.426;37.756;2023-12-07T00:03:46;101212.34;;;-10.88;80.49
42671;BME280;28283;55.426;37.756;2023-12-07T00:08:47;101215.88;;;-10.90;80.43
42671;BME280;28283;55.426;37.756;2023-12-07T00:13:48;101233.09;;;-10.85;80.00
42671;BME280;28283;55.426;37.756;2023-12-07T00:18:48;101230.63;;;-10.92;79.36
42671;BME280;28283;55.426;37.756;2023-12-07T00:23:49;101234.00;;;-10.87;80.05
42671;BME280;28283;55.426;37.756;2023-12-07T00:28:50;101177.31;;;-11.24;80.41
42671;BME280;28283;55.426;37.756;2023-12-07T00:33:50;101237.50;;;-10.90;80.05
42671;BME280;28283;55.426;37.756;2023-12-07T00:38:51;101198.06;;;-11.21;80.06
42671;BME280;28283;55.426;37.756;2023-12-07T00:43:51;101145.59;;;-11.51;80.35
42671;BME280;28283;55.426;37.756;2023-12-07T00:48:52;101199.00;;;-11.28;80.32
42671;BME280;28283;55.426;37.756;2023-12-07T00:53:53;101239.41;;;-11.04;80.09
42671;BME280;28283;55.426;37.756;2023-12-07T00:58:53;101254.94;;;-11.01;80.63
42671;BME280;28283;55.426;37.756;2023-12-07T01:03:54;101232.56;;;-11.15;79.86
42671;BME280;28283;55.426;37.756;2023-12-07T01:08:54;101229.16;;;-11.17;79.71
42671;BME280;28283;55.426;37.756;2023-12-07T01:13:55;101258.41;;;-11.02;81.02
42671;BME280;28283;55.426;37.756;2023-12-07T01:18:56;101257.56;;;-11.01;80.90
42671;BME280;28283;55.426;37.756;2023-12-07T01:23:58;101271.44;;;-11.05;80.18
42671;BME280;28283;55.426;37.756;2023-12-07T01:28:59;101256.66;;;-11.02;80.27
42671;BME280;28283;55.426;37.756;2023-12-07T01:33:59;101260.25;;;-11.10;80.49
42671;BME280;28283;55.426;37.756;2023-12-07T01:39:00;101270.47;;;-10.98;80.51
42671;BME280;28283;55.426;37.756;2023-12-07T01:44:00;101284.28;;;-10.95;80.55
42671;BME280;28283;55.426;37.756;2023-12-07T01:49:01;101283.41;;;-10.92;80.59
42671;BME280;28283;55.426;37.756;2023-12-07T01:54:02;101278.25;;;-10.97;80.49
42671;BME280;28283;55.426;37.756;2023-12-07T01:59:03;101248.16;;;-11.13;80.36
42671;BME280;28283;55.426;37.756;2023-12-07T02:04:04;101291.22;;;-10.95;79.78
42671;BME280;28283;55.426;37.756;2023-12-07T02:09:04;101292.16;;;-10.99;79.88
42671;BME280;28283;55.426;37.756;2023-12-07T02:14:06;101274.09;;;-11.11;79.88
42671;BME280;28283;55.426;37.756;2023-12-07T02:24:47;101307.72;;;-10.98;80.59
42671;BME280;28283;55.426;37.756;2023-12-07T02:29:48;101296.50;;;-11.01;80.59
42671;BME280;28283;55.426;37.756;2023-12-07T02:34:49;101292.19;;;-11.02;79.47
42671;BME280;28283;55.426;37.756;2023-12-07T02:39:51;101314.50;;;-10.86;79.85
42671;BME280;28283;55.426;37.756;2023-12-07T02:44:53;101327.44;;;-10.78;80.17
42671;BME280;28283;55.426;37.756;2023-12-07T02:49:54;101318.69;;;-10.72;80.80
42671;BME280;28283;55.426;37.756;2023-12-07T02:54:54;101321.41;;;-10.82;80.20
42671;BME280;28283;55.426;37.756;2023-12-07T02:59:55;101295.47;;;-10.88;80.70
42671;BME280;28283;55.426;37.756;2023-12-07T03:04:56;101305.66;;;-10.69;80.41
42671;BME280;28283;55.426;37.756;2023-12-07T03:09:56;101319.47;;;-10.64;79.77
42671;BME280;28283;55.426;37.756;2023-12-07T03:14:57;101286.00;;;-10.92;80.28
42671;BME280;28283;55.426;37.756;2023-12-07T03:19:58;101338.47;;;-10.59;80.00
42671;BME280;28283;55.426;37.756;2023-12-07T03:24:59;101308.31;;;-10.74;80.61
42671;BME280;28283;55.426;37.756;2023-12-07T03:29:59;101285.19;;;-10.94;79.87
42671;BME280;28283;55.426;37.756;2023-12-07T03:35:00;101348.81;;;-10.53;79.84
42671;BME280;28283;55.426;37.756;2023-12-07T03:40:00;101360.00;;;-10.48;79.91
42671;BME280;28283;55.426;37.756;2023-12-07T03:45:01;101359.09;;;-10.45;80.27
42671;BME280;28283;55.426;37.756;2023-12-07T03:50:02;101359.94;;;-10.43;80.89
42671;BME280;28283;55.426;37.756;2023-12-07T03:55:03;101335.88;;;-10.61;80.32
42671;BME280;28283;55.426;37.756;2023-12-07T04:00:04;101369.41;;;-10.38;79.99
42671;BME280;28283;55.426;37.756;2023-12-07T04:05:08;101371.16;;;-10.38;79.39
42671;BME280;28283;55.426;37.756;2023-12-07T04:10:09;101369.47;;;-10.41;79.70
42671;BME280;28283;55.426;37.756;2023-12-07T04:15:10;101378.16;;;-10.46;79.91
42671;BME280;28283;55.426;37.756;2023-12-07T04:20:11;101397.25;;;-10.46;80.38
42671;BME280;28283;55.426;37.756;2023-12-07T04:25:13;101382.47;;;-10.44;80.13
42671;BME280;28283;55.426;37.756;2023-12-07T04:30:13;101339.41;;;-10.66;79.95
42671;BME280;28283;55.426;37.756;2023-12-07T04:35:14;101379.91;;;-10.45;80.13
42671;BME280;28283;55.426;37.756;2023-12-07T04:40:15;101383.31;;;-10.40;79.95
42671;BME280;28283;55.426;37.756;2023-12-07T04:45:16;101383.28;;;-10.37;79.98
42671;BME280;28283;55.426;37.756;2023-12-07T04:50:16;101386.69;;;-10.33;80.02
42671;BME280;28283;55.426;37.756;2023-12-07T04:55:17;101390.09;;;-10.30;79.85
42671;BME280;28283;55.426;37.756;2023-12-07T05:00:18;101336.78;;;-10.63;79.82
42671;BME280;28283;55.426;37.756;2023-12-07T05:05:18;101268.03;;;-11.10;79.61
42671;BME280;28283;55.426;37.756;2023-12-07T05:10:19;101359.47;;;-10.78;79.45
42671;BME280;28283;55.426;37.756;2023-12-07T05:15:20;101370.56;;;-10.63;79.32
42671;BME280;28283;55.426;37.756;2023-12-07T05:20:20;101420.50;;;-10.35;79.54
42671;BME280;28283;55.426;37.756;2023-12-07T05:25:23;101420.56;;;-10.40;79.95
42671;BME280;28283;55.426;37.756;2023-12-07T05:30:23;101420.56;;;-10.40;79.92
42671;BME280;28283;55.426;37.756;2023-12-07T05:35:24;101443.06;;;-10.37;79.84
42671;BME280;28283;55.426;37.756;2023-12-07T05:40:24;101427.59;;;-10.49;79.61
42671;BME280;28283;55.426;37.756;2023-12-07T05:45:25;101450.88;;;-10.39;79.73
42671;BME280;28283;55.426;37.756;2023-12-07T05:50:26;101463.88;;;-10.37;79.74
42671;BME280;28283;55.426;37.756;2023-12-07T05:55:27;101418.16;;;-10.58;79.45
42671;BME280;28283;55.426;37.756;2023-12-07T06:00:27;101469.00;;;-10.31;79.84
42671;BME280;28283;55.426;37.756;2023-12-07T06:05:28;101466.41;;;-10.32;79.69
42671;BME280;28283;55.426;37.756;2023-12-07T06:10:28;101355.34;;;-11.02;79.71
42671;BME280;28283;55.426;37.756;2023-12-07T06:15:29;101466.34;;;-10.28;79.63
42671;BME280;28283;55.426;37.756;2023-12-07T06:20:30;101442.25;;;-10.41;79.82
42671;BME280;28283;55.426;37.756;2023-12-07T06:25:31;101470.63;;;-10.25;79.81
42671;BME280;28283;55.426;37.756;2023-12-07T06:30:31;101462.84;;;-10.28;79.48
42671;BME280;28283;55.426;37.756;2023-12-07T06:35:32;101473.31;;;-10.30;79.25
42671;BME280;28283;55.426;37.756;2023-12-07T06:40:32;101457.84;;;-10.41;79.49
42671;BME280;28283;55.426;37.756;2023-12-07T06:45:33;101406.13;;;-10.68;78.70
42671;BME280;28283;55.426;37.756;2023-12-07T06:50:34;101472.38;;;-10.24;79.34
42671;BME280;28283;55.426;37.756;2023-12-07T06:55:34;101470.63;;;-10.25;78.59
42671;BME280;28283;55.426;37.756;2023-12-07T07:00:35;101478.41;;;-10.22;78.74
42671;BME280;28283;55.426;37.756;2023-12-07T07:05:36;101474.16;;;-10.28;78.53
42671;BME280;28283;55.426;37.756;2023-12-07T07:10:37;101474.28;;;-10.37;78.08
42671;BME280;28283;55.426;37.756;2023-12-07T07:15:37;101480.34;;;-10.41;78.08
42671;BME280;28283;55.426;37.756;2023-12-07T07:20:38;101445.91;;;-10.60;78.51
42671;BME280;28283;55.426;37.756;2023-12-07T07:25:39;101322.75;;;-11.30;78.40
42671;BME280;28283;55.426;37.756;2023-12-07T07:30:39;101406.22;;;-10.74;78.45
42671;BME280;28283;55.426;37.756;2023-12-07T07:35:40;101452.78;;;-10.53;78.60
42671;BME280;28283;55.426;37.756;2023-12-07T07:40:40;101487.13;;;-10.26;78.89
42671;BME280;28283;55.426;37.756;2023-12-07T07:45:42;101494.00;;;-10.19;78.12
42671;BME280;28283;55.426;37.756;2023-12-07T07:50:42;101475.81;;;-10.24;77.92
42671;BME280;28283;55.426;37.756;2023-12-07T07:55:43;101494.75;;;-10.09;78.07
42671;BME280;28283;55.426;37.756;2023-12-07T08:00:44;101498.19;;;-10.07;77.94
42671;BME280;28283;55.426;37.756;2023-12-07T08:05:46;101511.38;;;-10.24;77.49
42671;BME280;28283;55.426;37.756;2023-12-07T08:10:47;101461.50;;;-10.60;77.18
42671;BME280;28283;55.426;37.756;2023-12-07T08:15:48;101383.31;;;-11.28;76.96
42671;BME280;28283;55.426;37.756;2023-12-07T08:20:48;101445.38;;;-10.99;77.16
42671;BME280;28283;55.426;37.756;2023-12-07T08:25:49;101516.84;;;-10.52;77.73
42671;BME280;28283;55.426;37.756;2023-12-07T08:30:49;101511.72;;;-10.58;77.33
42671;BME280;28283;55.426;37.756;2023-12-07T08:35:50;101495.28;;;-10.60;77.41
42671;BME280;28283;55.426;37.756;2023-12-07T08:40:54;101507.28;;;-10.48;77.83
42671;BME280;28283;55.426;37.756;2023-12-07T08:45:55;101503.94;;;-10.60;77.83
42671;BME280;28283;55.426;37.756;2023-12-07T08:50:56;101476.38;;;-10.79;77.70
42671;BME280;28283;55.426;37.756;2023-12-07T08:55:56;101481.53;;;-10.73;77.72
42671;BME280;28283;55.426;37.756;2023-12-07T09:00:57;101488.31;;;-10.57;77.38
42671;BME280;28283;55.426;37.756;2023-12-07T09:05:59;101506.34;;;-10.38;77.43
42671;BME280;28283;55.426;37.756;2023-12-07T09:11:00;101494.00;;;-10.22;77.98
42671;BME280;28283;55.426;37.756;2023-12-07T09:16:01;101478.50;;;-10.30;77.55
42671;BME280;28283;55.426;37.756;2023-12-07T09:21:02;101518.91;;;-10.00;77.90
42671;BME280;28283;55.426;37.756;2023-12-07T09:26:04;101481.56;;;-9.94;77.21
42671;BME280;28283;55.426;37.756;2023-12-07T09:31:05;101461.72;;;-10.04;76.98
42671;BME280;28283;55.426;37.756;2023-12-07T09:36:05;101422.91;;;-10.21;76.97
42671;BME280;28283;55.426;37.756;2023-12-07T09:41:08;101438.91;;;-9.84;76.65
42671;BME280;28283;55.426;37.756;2023-12-07T09:46:09;101494.66;;;-9.35;76.66
42671;BME280;28283;55.426;37.756;2023-12-07T09:51:10;101408.50;;;-9.80;75.83
42671;BME280;28283;55.426;37.756;2023-12-07T09:56:11;101435.16;;;-9.60;75.80
42671;BME280;28283;55.426;37.756;2023-12-07T10:01:13;101386.84;;;-9.82;74.55
42671;BME280;28283;55.426;37.756;2023-12-07T10:06:15;101463.53;;;-9.44;75.39
42671;BME280;28283;55.426;37.756;2023-12-07T10:11:15;101489.44;;;-9.35;75.49
42671;BME280;28283;55.426;37.756;2023-12-07T10:16:16;101453.41;;;-9.63;75.24
42671;BME280;28283;55.426;37.756;2023-12-07T10:21:31;101480.88;;;-9.42;75.34
42671;BME280;28283;55.426;37.756;2023-12-07T10:26:32;101500.81;;;-9.39;74.98
42671;BME280;28283;55.426;37.756;2023-12-07T10:31:34;101460.53;;;-9.77;75.24
42671;BME280;28283;55.426;37.756;2023-12-07T10:36:34;101372.47;;;-10.08;74.35
42671;BME280;28283;55.426;37.756;2023-12-07T10:41:35;101460.03;;;-9.40;75.43
42671;BME280;28283;55.426;37.756;2023-12-07T10:46:36;101497.84;;;-9.13;75.34
42671;BME280;28283;55.426;37.756;2023-12-07T10:51:42;101482.25;;;-9.17;74.83
42671;BME280;28283;55.426;37.756;2023-12-07T10:56:46;101475.50;;;-9.29;74.64
42671;BME280;28283;55.426;37.756;2023-12-07T11:01:47;101489.44;;;-9.35;74.74
42671;BME280;28283;55.426;37.756;2023-12-07T11:06:50;101498.16;;;-9.36;74.53
42671;BME280;28283;55.426;37.756;2023-12-07T11:11:59;101484.44;;;-9.47;74.82
42671;BME280;28283;55.426;37.756;2023-12-07T11:17:03;101499.94;;;-9.38;73.47
42671;BME280;28283;55.426;37.756;2023-12-07T11:22:06;101414.00;;;-10.03;73.64
42671;BME280;28283;55.426;37.756;2023-12-07T11:27:07;101507.91;;;-9.50;74.15
42671;BME280;28283;55.426;37.756;2023-12-07T11:32:10;101364.28;;;-10.44;74.42
42671;BME280;28283;55.426;37.756;2023-12-07T11:37:13;101486.28;;;-9.55;74.58
42671;BME280;28283;55.426;37.756;2023-12-07T11:42:16;101492.19;;;-9.44;74.89
42671;BME280;28283;55.426;37.756;2023-12-07T11:47:19;101502.41;;;-9.30;74.13
42671;BME280;28283;55.426;37.756;2023-12-07T11:52:21;101495.47;;;-9.31;74.76
42671;BME280;28283;55.426;37.756;2023-12-07T11:57:22;101491.16;;;-9.31;74.04
42671;BME280;28283;55.426;37.756;2023-12-07T12:02:22;101412.91;;;-9.84;73.85
42671;BME280;28283;55.426;37.756;2023-12-07T12:07:23;101494.81;;;-9.46;73.91
42671;BME280;28283;55.426;37.756;2023-12-07T12:12:25;101452.69;;;-9.75;74.10
42671;BME280;28283;55.426;37.756;2023-12-07T12:17:27;101497.50;;;-9.50;73.65
42671;BME280;28283;55.426;37.756;2023-12-07T12:22:27;101476.88;;;-9.67;74.04
42671;BME280;28283;55.426;37.756;2023-12-07T12:27:28;101491.56;;;-9.62;74.34
42671;BME280;28283;55.426;37.756;2023-12-07T12:32:44;101474.66;;;-9.96;73.43
42671;BME280;28283;55.426;37.756;2023-12-07T12:37:46;101490.16;;;-9.89;74.25
42671;BME280;28283;55.426;37.756;2023-12-07T12:42:52;101514.56;;;-9.98;74.58
42671;BME280;28283;55.426;37.756;2023-12-07T12:47:53;101521.72;;;-10.20;73.86
42671;BME280;28283;55.426;37.756;2023-12-07T12:52:54;101493.38;;;-10.43;74.32
42671;BME280;28283;55.426;37.756;2023-12-07T12:57:55;101430.56;;;-10.91;74.70
42671;BME280;28283;55.426;37.756;2023-12-07T13:02:57;101519.44;;;-10.50;75.14
42671;BME280;28283;55.426;37.756;2023-12-07T13:07:58;101526.47;;;-10.60;74.70
42671;BME280;28283;55.426;37.756;2023-12-07T13:13:00;101522.25;;;-10.75;75.50
42671;BME280;28283;55.426;37.756;2023-12-07T13:18:00;101462.81;;;-11.12;75.89
42671;BME280;28283;55.426;37.756;2023-12-07T13:23:01;101540.50;;;-10.80;75.13
42671;BME280;28283;55.426;37.756;2023-12-07T13:28:02;101532.91;;;-11.10;75.53
42671;BME280;28283;55.426;37.756;2023-12-07T13:33:03;101395.81;;;-11.87;76.02
42671;BME280;28283;55.426;37.756;2023-12-07T13:38:07;101528.56;;;-11.08;75.31
42671;BME280;28283;55.426;37.756;2023-12-07T13:43:07;101539.75;;;-10.99;75.71
42671;BME280;28283;55.426;37.756;2023-12-07T13:48:09;101472.50;;;-11.42;76.34
42671;BME280;28283;55.426;37.756;2023-12-07T13:53:10;101543.19;;;-10.93;76.76
42671;BME280;28283;55.426;37.756;2023-12-07T13:58:11;101518.97;;;-11.00;75.54
42671;BME280;28283;55.426;37.756;2023-12-07T14:03:12;101518.13;;;-11.02;75.32
42671;BME280;28283;55.426;37.756;2023-12-07T14:08:13;101544.84;;;-10.86;75.66
42671;BME280;28283;55.426;37.756;2023-12-07T14:13:13;101491.38;;;-11.17;75.51
42671;BME280;28283;55.426;37.756;2023-12-07T14:18:14;101511.22;;;-11.05;75.77
42671;BME280;28283;55.426;37.756;2023-12-07T14:23:15;101503.47;;;-11.09;75.76
42671;BME280;28283;55.426;37.756;2023-12-07T14:28:16;101525.00;;;-10.92;76.36
42671;BME280;28283;55.426;37.756;2023-12-07T14:33:20;101549.91;;;-10.69;76.56
42671;BME280;28283;55.426;37.756;2023-12-07T14:38:21;101558.53;;;-10.64;75.91
42671;BME280;28283;55.426;37.756;2023-12-07T14:43:22;101551.63;;;-10.64;76.46
42671;BME280;28283;55.426;37.756;2023-12-07T14:48:22;101542.09;;;-10.66;76.06
42671;BME280;28283;55.426;37.756;2023-12-07T14:53:24;101543.88;;;-10.71;75.65
42671;BME280;28283;55.426;37.756;2023-12-07T14:58:25;101554.25;;;-10.67;76.61
42671;BME280;28283;55.426;37.756;2023-12-07T15:03:25;101533.63;;;-10.87;76.53
42671;BME280;28283;55.426;37.756;2023-12-07T15:08:26;101547.38;;;-10.77;76.18
42671;BME280;28283;55.426;37.756;2023-12-07T15:13:27;101561.34;;;-10.89;75.35
42671;BME280;28283;55.426;37.756;2023-12-07T15:18:28;101555.38;;;-11.03;75.80
42671;BME280;28283;55.426;37.756;2023-12-07T15:23:31;101552.84;;;-11.19;74.72
42671;BME280;28283;55.426;37.756;2023-12-07T15:28:31;101538.97;;;-11.10;75.10
42671;BME280;28283;55.426;37.756;2023-12-07T15:33:33;101476.91;;;-11.56;74.77
42671;BME280;28283;55.426;37.756;2023-12-07T15:38:33;101581.31;;;-11.00;74.65
42671;BME280;28283;55.426;37.756;2023-12-07T15:43:34;101514.03;;;-11.37;74.57
42671;BME280;28283;55.426;37.756;2023-12-07T15:48:34;101535.59;;;-11.23;73.83
42671;BME280;28283;55.426;37.756;2023-12-07T15:53:35;101555.41;;;-11.11;74.68
42671;BME280;28283;55.426;37.756;2023-12-07T15:58:36;101564.94;;;-11.16;74.33
42671;BME280;28283;55.426;37.756;2023-12-07T16:03:36;101565.78;;;-11.13;74.82
42671;BME280;28283;55.426;37.756;2023-12-07T16:08:41;101570.97;;;-11.05;74.76
42671;BME280;28283;55.426;37.756;2023-12-07T16:13:42;101543.38;;;-11.23;75.12
42671;BME280;28283;55.426;37.756;2023-12-07T16:18:42;101582.25;;;-11.15;75.13
42671;BME280;28283;55.426;37.756;2023-12-07T16:23:43;101448.53;;;-11.85;74.40
42671;BME280;28283;55.426;37.756;2023-12-07T16:28:44;101475.28;;;-11.76;74.25
42671;BME280;28283;55.426;37.756;2023-12-07T16:33:46;101536.44;;;-11.21;75.02
42671;BME280;28283;55.426;37.756;2023-12-07T16:38:46;101519.16;;;-11.29;75.17
42671;BME280;28283;55.426;37.756;2023-12-07T16:43:47;101567.53;;;-11.11;73.85
42671;BME280;28283;55.426;37.756;2023-12-07T16:48:47;101341.69;;;-12.41;74.02
42671;BME280;28283;55.426;37.756;2023-12-07T16:53:48;101558.88;;;-11.10;74.76
42671;BME280;28283;55.426;37.756;2023-12-07T16:58:48;101599.50;;;-11.00;74.54
42671;BME280;28283;55.426;37.756;2023-12-07T17:03:49;101530.41;;;-11.29;74.74
42671;BME280;28283;55.426;37.756;2023-12-07T17:08:50;101575.34;;;-11.15;74.22
42671;BME280;28283;55.426;37.756;2023-12-07T17:13:53;101565.00;;;-11.21;74.66
42671;BME280;28283;55.426;37.756;2023-12-07T17:18:54;101546.94;;;-11.47;74.49
42671;BME280;28283;55.426;37.756;2023-12-07T17:23:55;101534.00;;;-11.55;74.38
42671;BME280;28283;55.426;37.756;2023-12-07T17:28:56;101565.94;;;-11.39;74.74
42671;BME280;28283;55.426;37.756;2023-12-07T17:33:57;101597.09;;;-11.37;74.17
42671;BME280;28283;55.426;37.756;2023-12-07T17:38:58;101578.06;;;-11.42;74.32
42671;BME280;28283;55.426;37.756;2023-12-07T17:43:59;101523.75;;;-11.84;73.96
42671;BME280;28283;55.426;37.756;2023-12-07T17:49:01;101516.91;;;-11.91;74.02
42671;BME280;28283;55.426;37.756;2023-12-07T17:54:02;101569.50;;;-11.63;73.66
42671;BME280;28283;55.426;37.756;2023-12-07T17:59:02;101598.00;;;-11.44;75.20
42671;BME280;28283;55.426;37.756;2023-12-07T18:04:04;101537.69;;;-12.00;74.11
42671;BME280;28283;55.426;37.756;2023-12-07T18:09:04;101574.69;;;-11.63;73.16
42671;BME280;28283;55.426;37.756;2023-12-07T18:14:05;101585.91;;;-11.58;74.39
42671;BME280;28283;55.426;37.756;2023-12-07T18:19:06;101585.06;;;-11.63;74.13
42671;BME280;28283;55.426;37.756;2023-12-07T18:24:07;101585.94;;;-11.68;74.41
42671;BME280;28283;55.426;37.756;2023-12-07T18:29:08;101485.97;;;-12.70;73.03
42671;BME280;28283;55.426;37.756;2023-12-07T18:34:09;101579.91;;;-11.72;74.52
42671;BME280;28283;55.426;37.756;2023-12-07T18:39:09;101534.19;;;-12.02;73.11
42671;BME280;28283;55.426;37.756;2023-12-07T18:44:10;101566.97;;;-11.81;73.54
42671;BME280;28283;55.426;37.756;2023-12-07T18:49:12;101504.88;;;-12.23;73.50
42671;BME280;28283;55.426;37.756;2023-12-07T18:54:13;101493.66;;;-12.33;73.03
42671;BME280;28283;55.426;37.756;2023-12-07T18:59:14;101548.91;;;-12.06;73.13
42671;BME280;28283;55.426;37.756;2023-12-07T19:04:15;101586.94;;;-12.02;73.72
42671;BME280;28283;55.426;37.756;2023-12-07T19:09:16;101600.78;;;-12.00;72.68
42671;BME280;28283;55.426;37.756;2023-12-07T19:14:20;101588.66;;;-12.01;73.29
42671;BME280;28283;55.426;37.756;2023-12-07T19:19:22;101594.72;;;-12.05;73.48
42671;BME280;28283;55.426;37.756;2023-12-07T19:24:23;101584.34;;;-12.05;73.37
42671;BME280;28283;55.426;37.756;2023-12-07T19:29:24;101563.66;;;-12.28;72.77
42671;BME280;28283;55.426;37.756;2023-12-07T19:34:25;101585.22;;;-12.15;73.46
42671;BME280;28283;55.426;37.756;2023-12-07T19:39:26;101597.31;;;-12.08;73.01
42671;BME280;28283;55.426;37.756;2023-12-07T19:44:28;101588.69;;;-12.05;74.04
42671;BME280;28283;55.426;37.756;2023-12-07T19:49:29;101610.28;;;-12.00;73.24
42671;BME280;28283;55.426;37.756;2023-12-07T19:54:29;101594.72;;;-12.05;72.24
42671;BME280;28283;55.426;37.756;2023-12-07T19:59:30;101419.53;;;-13.20;73.35
42671;BME280;28283;55.426;37.756;2023-12-07T20:04:30;101589.56;;;-12.11;73.19
42671;BME280;28283;55.426;37.756;2023-12-07T20:09:33;101581.78;;;-12.16;72.45
42671;BME280;28283;55.426;37.756;2023-12-07T20:14:33;101571.41;;;-12.28;73.16
42671;BME280;28283;55.426;37.756;2023-12-07T20:19:35;101605.09;;;-12.06;73.53
42671;BME280;28283;55.426;37.756;2023-12-07T20:24:37;101576.59;;;-12.26;72.89
42671;BME280;28283;55.426;37.756;2023-12-07T20:29:39;101596.47;;;-12.12;73.21
42671;BME280;28283;55.426;37.756;2023-12-07T20:34:39;101547.25;;;-12.44;74.02
42671;BME280;28283;55.426;37.756;2023-12-07T20:39:40;101599.03;;;-12.13;74.02
42671;BME280;28283;55.426;37.756;2023-12-07T20:44:41;101501.50;;;-12.79;73.39
42671;BME280;28283;55.426;37.756;2023-12-07T20:49:42;101595.63;;;-12.20;73.14
42671;BME280;28283;55.426;37.756;2023-12-07T20:54:43;101526.53;;;-12.55;73.76
42671;BME280;28283;55.426;37.756;2023-12-07T20:59:44;101583.53;;;-12.25;73.56
42671;BME280;28283;55.426;37.756;2023-12-07T21:04:45;101597.34;;;-12.22;74.04
42671;BME280;28283;55.426;37.756;2023-12-07T21:09:45;101585.22;;;-12.27;73.09
42671;BME280;28283;55.426;37.756;2023-12-07T21:14:46;101594.75;;;-12.30;73.26
42671;BME280;28283;55.426;37.756;2023-12-07T21:19:47;101547.28;;;-12.59;74.67
42671;BME280;28283;55.426;37.756;2023-12-07T21:24:48;101574.91;;;-12.52;73.90
42671;BME280;28283;55.426;37.756;2023-12-07T21:29:49;101585.25;;;-12.32;74.45
42671;BME280;28283;55.426;37.756;2023-12-07T21:34:51;101586.97;;;-12.31;74.62
42671;BME280;28283;55.426;37.756;2023-12-07T21:39:51;101517.91;;;-12.71;73.96
42671;BME280;28283;55.426;37.756;2023-12-07T21:44:53;101588.69;;;-12.36;75.00
42671;BME280;28283;55.426;37.756;2023-12-07T21:49:54;101574.00;;;-12.43;75.09
42671;BME280;28283;55.426;37.756;2023-12-07T21:54:54;101595.59;;;-12.24;74.70
42671;BME280;28283;55.426;37.756;2023-12-07T21:59:55;101570.56;;;-12.35;73.99
42671;BME280;28283;55.426;37.756;2023-12-07T22:04:56;101596.47;;;-12.28;74.50
42671;BME280;28283;55.426;37.756;2023-12-07T22:09:57;101590.44;;;-12.32;75.60
42671;BME280;28283;55.426;37.756;2023-12-07T22:14:57;101588.69;;;-12.32;75.01
42671;BME280;28283;55.426;37.756;2023-12-07T22:19:58;101583.50;;;-12.36;75.48
42671;BME280;28283;55.426;37.756;2023-12-07T22:24:59;101589.56;;;-12.31;75.06
42671;BME280;28283;55.426;37.756;2023-12-07T22:30:00;101591.28;;;-12.33;74.50
42671;BME280;28283;55.426;37.756;2023-12-07T22:35:01;101572.31;;;-12.54;74.95
42671;BME280;28283;55.426;37.756;2023-12-07T22:40:02;101532.56;;;-12.74;75.14
42671;BME280;28283;55.426;37.756;2023-12-07T22:45:03;101433.31;;;-13.27;75.40
42671;BME280;28283;55.426;37.756;2023-12-07T22:50:04;101597.34;;;-12.23;75.38
42671;BME280;28283;55.426;37.756;2023-12-07T22:55:05;101600.81;;;-12.21;75.54
42671;BME280;28283;55.426;37.756;2023-12-07T23:00:06;101600.81;;;-12.18;74.94
42671;BME280;28283;55.426;37.756;2023-12-07T23:05:19;101598.22;;;-12.20;75.75
42671;BME280;28283;55.426;37.756;2023-12-07T23:10:19;101590.44;;;-12.21;75.37
42671;BME280;28283;55.426;37.756;2023-12-07T23:15:20;101586.97;;;-12.23;76.33
42671;BME280;28283;55.426;37.756;2023-12-07T23:20:21;101423.84;;;-13.16;74.87
42671;BME280;28283;55.426;37.756;2023-12-07T23:25:22;101484.22;;;-12.83;76.05
42671;BME280;28283;55.426;37.756;2023-12-07T23:30:23;101581.78;;;-12.17;74.98
42671;BME280;28283;55.426;37.756;2023-12-07T23:35:24;101514.47;;;-12.56;75.91
42671;BME280;28283;55.426;37.756;2023-12-07T23:40:24;101468.72;;;-12.84;75.62
42671;BME280;28283;55.426;37.756;2023-12-07T23:45:25;101545.53;;;-12.36;76.53
42671;BME280;28283;55.426;37.756;2023-12-07T23:50:26;101525.66;;;-12.48;76.03
42671;BME280;28283;55.426;37.756;2023-12-07T23:55:26;101472.13;;;-12.79;75.65
